createdAt,value
2023-02-06T00:01:51.678Z,10.27
2023-02-06T00:04:18.318Z,9.82
2023-02-06T00:06:45.155Z,9.02
2023-02-06T00:09:11.992Z,9.00
2023-02-06T00:11:38.609Z,7.70
2023-02-06T00:14:05.357Z,8.60
2023-02-06T00:16:34.135Z,10.32
2023-02-06T00:19:01.197Z,7.93
2023-02-06T00:21:29.308Z,12.23
2023-02-06T00:23:58.148Z,7.97
2023-02-06T00:26:25.741Z,8.93
2023-02-06T00:28:52.782Z,7.57
2023-02-06T00:31:19.652Z,9.65
2023-02-06T00:33:46.343Z,10.15
2023-02-06T00:36:12.914Z,11.45
2023-02-06T00:38:39.810Z,9.45
2023-02-06T00:41:06.469Z,9.70
2023-02-06T00:43:33.495Z,10.45
2023-02-06T00:46:00.154Z,10.68
2023-02-06T00:48:26.901Z,9.20
2023-02-06T00:50:53.919Z,9.52
2023-02-06T00:53:20.781Z,8.50
2023-02-06T00:55:47.309Z,8.90
2023-02-06T00:58:13.890Z,8.27
2023-02-06T01:00:40.447Z,9.95
2023-02-06T01:03:07.048Z,12.60
2023-02-06T01:05:33.788Z,7.38
2023-02-06T01:08:01.870Z,8.57
2023-02-06T01:10:29.420Z,8.38
2023-02-06T01:12:55.952Z,10.55
2023-02-06T01:15:22.555Z,10.95
2023-02-06T01:17:49.089Z,11.90
2023-02-06T01:20:16.403Z,7.65
2023-02-06T01:22:43.044Z,9.70
2023-02-06T01:25:09.645Z,8.27
2023-02-06T01:27:37.850Z,11.18
2023-02-06T01:30:06.455Z,7.13
2023-02-06T01:32:36.738Z,8.27
2023-02-06T01:35:03.525Z,6.05
2023-02-06T01:37:30.586Z,6.28
2023-02-06T01:39:57.113Z,7.18
2023-02-06T01:42:23.653Z,11.32
2023-02-06T01:45:10.175Z,9.48
2023-02-06T01:47:36.739Z,8.00
2023-02-06T01:50:03.583Z,8.70
2023-02-06T01:52:31.176Z,9.10
2023-02-06T01:55:02.716Z,7.22
2023-02-06T01:57:30.271Z,10.40
2023-02-06T02:00:09.127Z,9.45
2023-02-06T02:02:38.850Z,9.25
2023-02-06T02:05:08.550Z,9.57
2023-02-06T02:07:37.291Z,7.20
2023-02-06T02:10:04.708Z,9.77
2023-02-06T02:12:31.283Z,8.15
2023-02-06T02:14:58.947Z,9.57
2023-02-06T02:17:31.340Z,7.65
2023-02-06T02:20:16.662Z,9.38
2023-02-06T02:22:51.602Z,9.25
2023-02-06T02:25:46.046Z,10.57
2023-02-06T02:28:33.834Z,7.80
2023-02-06T02:31:12.491Z,9.18
2023-02-06T02:34:00.795Z,10.40
2023-02-06T02:36:59.346Z,8.57
2023-02-06T02:39:28.833Z,11.35
2023-02-06T02:42:37.204Z,10.00
2023-02-06T02:45:16.855Z,10.43
2023-02-06T02:47:54.260Z,15.02
2023-02-06T02:50:20.898Z,7.97
2023-02-06T02:52:47.458Z,7.13
2023-02-06T02:55:21.509Z,7.93
2023-02-06T02:57:51.351Z,8.77
2023-02-06T03:00:20.139Z,11.35
2023-02-06T03:02:49.104Z,8.02
2023-02-06T03:05:20.228Z,9.93
2023-02-06T03:07:55.091Z,10.85
2023-02-06T03:10:31.892Z,9.07
2023-02-06T03:13:34.397Z,13.65
2023-02-06T03:16:05.848Z,8.10
2023-02-06T03:18:45.783Z,10.32
2023-02-06T03:21:18.501Z,12.10
2023-02-06T03:23:48.276Z,11.80
2023-02-06T03:26:17.924Z,7.32
2023-02-06T03:29:00.006Z,8.25
2023-02-06T03:31:34.415Z,10.98
2023-02-06T03:34:16.675Z,8.90
2023-02-06T03:36:43.446Z,6.82
2023-02-06T03:39:10.079Z,10.60
2023-02-06T03:41:39.208Z,7.75
2023-02-06T03:44:12.162Z,8.90
2023-02-06T03:46:42.990Z,9.73
2023-02-06T03:49:14.208Z,7.55
2023-02-06T03:51:55.834Z,10.88
2023-02-06T03:54:24.158Z,8.60
2023-02-06T03:56:54.506Z,9.63
2023-02-06T03:59:21.368Z,8.48
2023-02-06T04:01:51.563Z,7.55
2023-02-06T04:04:20.224Z,9.07
2023-02-06T04:06:46.888Z,8.20
2023-02-06T04:09:13.423Z,9.85
2023-02-06T04:11:39.981Z,9.13
2023-02-06T04:14:06.593Z,10.20
2023-02-06T04:16:33.180Z,8.95
2023-02-06T04:18:59.701Z,6.45
2023-02-06T04:21:26.249Z,7.15
2023-02-06T04:23:52.762Z,8.07
2023-02-06T04:26:19.288Z,7.32
2023-02-06T04:28:45.846Z,8.15
2023-02-06T04:31:12.476Z,10.00
2023-02-06T04:33:39.094Z,8.85
2023-02-06T04:36:05.905Z,11.25
2023-02-06T04:38:32.480Z,6.55
2023-02-06T04:41:06.501Z,6.80
2023-02-06T04:43:34.003Z,10.85
2023-02-06T04:46:00.611Z,9.75
2023-02-06T04:48:27.211Z,7.35
2023-02-06T04:50:53.799Z,9.50
2023-02-06T04:53:20.360Z,6.40
2023-02-06T04:55:46.891Z,8.32
2023-02-06T04:58:13.532Z,5.80
2023-02-06T05:00:40.064Z,8.27
2023-02-06T05:03:06.976Z,8.13
2023-02-06T05:05:33.692Z,10.48
2023-02-06T05:08:00.394Z,6.70
2023-02-06T05:10:26.969Z,6.80
2023-02-06T05:12:53.688Z,10.38
2023-02-06T05:15:20.217Z,8.55
2023-02-06T05:17:46.739Z,8.73
2023-02-06T05:20:13.365Z,9.10
2023-02-06T05:22:39.876Z,7.57
2023-02-06T05:25:06.776Z,8.23
2023-02-06T05:27:33.361Z,8.23
2023-02-06T05:30:01.198Z,10.85
2023-02-06T05:32:27.733Z,7.25
2023-02-06T05:34:54.328Z,7.28
2023-02-06T05:37:20.896Z,6.88
2023-02-06T05:39:47.402Z,8.48
2023-02-06T05:42:14.021Z,8.43
2023-02-06T05:44:40.573Z,10.55
2023-02-06T05:47:07.163Z,8.85
2023-02-06T05:49:33.717Z,6.72
2023-02-06T05:52:00.277Z,10.05
2023-02-06T05:54:26.780Z,9.18
2023-02-06T05:56:53.400Z,7.10
2023-02-06T05:59:20.133Z,8.90
2023-02-06T06:01:46.644Z,6.63
2023-02-06T06:04:13.284Z,8.40
2023-02-06T06:06:39.903Z,7.97
2023-02-06T06:09:06.567Z,7.35
2023-02-06T06:11:33.570Z,8.20
2023-02-06T06:14:00.256Z,9.00
2023-02-06T06:16:26.920Z,9.15
2023-02-06T06:18:53.760Z,10.98
2023-02-06T06:21:20.281Z,11.40
2023-02-06T06:23:46.873Z,10.35
2023-02-06T06:26:13.467Z,9.68
2023-02-06T06:28:40.219Z,8.85
2023-02-06T06:31:11.837Z,8.65
2023-02-06T07:57:07.972Z,10.18
2023-02-06T07:59:34.539Z,9.95
2023-02-06T08:02:01.131Z,8.00
2023-02-06T08:04:29.480Z,7.00
2023-02-06T08:06:56.065Z,6.15
2023-02-06T08:09:22.600Z,6.32
2023-02-06T08:11:49.190Z,5.47
2023-02-06T09:04:42.726Z,5.13
2023-02-06T09:07:09.276Z,6.03
2023-02-06T09:09:35.811Z,4.43
2023-02-06T09:12:03.992Z,5.35
2023-02-06T09:14:31.330Z,5.00
2023-02-06T09:16:58.354Z,5.78
2023-02-06T09:19:25.483Z,5.80
2023-02-06T09:21:51.990Z,6.47
2023-02-06T09:24:18.593Z,8.48
2023-02-06T09:26:58.942Z,4.70
2023-02-06T09:29:28.890Z,4.88
2023-02-06T09:31:59.543Z,7.30
2023-02-06T09:34:27.065Z,4.32
2023-02-06T09:36:54.645Z,5.63
2023-02-06T09:39:21.446Z,4.72
2023-02-06T09:41:52.327Z,5.00
2023-02-06T09:44:21.522Z,5.05
2023-02-06T09:46:55.574Z,4.13
2023-02-06T09:49:28.012Z,9.05
2023-02-06T09:52:09.767Z,4.75
2023-02-06T09:54:46.105Z,6.28
2023-02-06T09:57:37.359Z,5.40
2023-02-06T10:00:24.681Z,5.40
2023-02-06T10:03:30.850Z,5.15
2023-02-06T10:06:19.330Z,3.65
2023-02-06T10:08:53.674Z,5.70
2023-02-06T10:11:49.649Z,4.28
2023-02-06T10:14:28.294Z,4.07
2023-02-06T10:17:04.756Z,5.93
2023-02-06T10:19:40.708Z,5.65
2023-02-06T10:24:43.706Z,3.65
2023-02-06T10:27:13.848Z,4.53
2023-02-06T10:29:42.914Z,4.07
2023-02-06T10:32:35.547Z,3.60
2023-02-06T10:35:07.710Z,5.15
2023-02-06T10:38:01.897Z,4.65
2023-02-06T10:40:37.243Z,5.07
2023-02-06T10:43:31.105Z,5.60
2023-02-06T10:46:05.987Z,5.70
2023-02-06T10:48:42.426Z,5.03
2023-02-06T10:51:11.912Z,5.07
2023-02-06T10:54:01.348Z,7.20
2023-02-06T10:56:30.636Z,4.35
2023-02-06T10:59:00.990Z,5.05
2023-02-06T11:01:34.577Z,7.45
2023-02-06T11:04:14.976Z,4.65
2023-02-06T11:06:43.091Z,4.60
2023-02-06T11:09:10.293Z,4.90
2023-02-06T11:11:40.473Z,4.55
2023-02-06T11:14:33.053Z,6.50
2023-02-06T11:17:00.383Z,5.80
2023-02-06T11:19:32.271Z,7.13
2023-02-06T11:22:04.718Z,8.25
2023-02-06T11:24:31.676Z,6.38
2023-02-06T11:27:01.540Z,6.68
2023-02-06T11:29:37.870Z,6.40
2023-02-06T11:32:07.168Z,6.88
2023-02-06T11:34:50.996Z,5.63
2023-02-06T11:37:34.605Z,4.95
2023-02-06T11:40:19.801Z,9.10
2023-02-06T11:42:48.288Z,6.57
2023-02-06T11:45:28.918Z,6.10
2023-02-06T11:47:56.406Z,8.40
2023-02-06T11:50:34.508Z,6.05
2023-02-06T11:53:11.654Z,6.10
2023-02-06T11:55:39.707Z,4.80
2023-02-06T11:58:09.511Z,5.00
2023-02-06T12:00:37.071Z,5.45
2023-02-06T12:03:04.869Z,6.93
2023-02-06T12:05:40.529Z,5.45
2023-02-06T12:08:19.784Z,9.85
2023-02-06T12:11:12.488Z,5.78
2023-02-06T12:13:44.198Z,6.20
2023-02-06T12:16:14.311Z,6.20
2023-02-06T12:18:44.418Z,3.95
2023-02-06T12:21:20.733Z,4.75
2023-02-06T12:23:55.757Z,4.60
2023-02-06T12:26:27.161Z,6.00
2023-02-06T12:29:19.590Z,4.65
2023-02-06T12:32:24.172Z,5.35
2023-02-06T12:34:54.849Z,6.05
2023-02-06T12:37:25.757Z,5.40
2023-02-06T12:39:53.056Z,6.20
2023-02-06T12:42:47.414Z,4.80
2023-02-06T12:45:46.175Z,6.28
2023-02-06T12:48:18.491Z,6.57
2023-02-06T12:51:18.130Z,6.55
2023-02-06T12:53:44.699Z,4.95
2023-02-06T12:56:39.620Z,5.95
2023-02-06T12:59:14.970Z,6.00
2023-02-06T13:02:12.652Z,6.20
2023-02-06T13:04:39.906Z,5.13
2023-02-06T13:07:11.135Z,5.07
2023-02-06T13:09:47.165Z,4.47
2023-02-06T13:12:18.690Z,4.65
2023-02-06T13:14:48.088Z,4.68
2023-02-06T13:17:26.673Z,4.90
2023-02-06T13:20:00.880Z,5.50
2023-02-06T13:22:39.422Z,4.80
2023-02-06T13:25:30.623Z,5.95
2023-02-06T13:28:22.093Z,4.78
2023-02-06T13:30:59.288Z,5.38
2023-02-06T13:33:38.193Z,4.32
2023-02-06T13:36:16.626Z,4.47
2023-02-06T16:32:49.603Z,6.30
2023-02-06T16:35:16.429Z,6.15
2023-02-06T16:37:43.069Z,5.25
2023-02-06T16:40:10.324Z,5.50
2023-02-06T16:42:41.298Z,5.90
2023-02-06T16:45:20.437Z,6.65
2023-02-06T16:47:46.995Z,6.03
2023-02-06T16:50:13.806Z,5.40
2023-02-06T16:52:48.182Z,7.43
2023-02-06T16:55:22.917Z,7.28
2023-02-06T16:57:53.480Z,7.32
2023-02-06T17:00:25.081Z,6.05
2023-02-06T17:02:52.659Z,8.98
2023-02-06T17:05:21.477Z,6.10
2023-02-06T17:07:51.656Z,5.57
2023-02-06T17:10:21.133Z,9.57
2023-02-06T17:12:48.105Z,8.27
2023-02-06T17:15:16.943Z,5.30
2023-02-06T17:17:43.665Z,6.38
2023-02-06T17:20:30.314Z,5.28
2023-02-06T17:22:57.031Z,6.10
2023-02-06T17:25:23.593Z,6.85
2023-02-06T17:27:50.198Z,9.68
2023-02-06T17:30:22.949Z,29.48
2023-02-06T17:32:49.790Z,37.22
2023-02-06T17:35:17.103Z,22.08
2023-02-06T17:37:44.196Z,19.77
2023-02-06T17:40:24.215Z,12.52
2023-02-06T17:42:51.159Z,11.15
2023-02-06T17:45:18.052Z,11.25
2023-02-06T17:47:44.850Z,7.97
2023-02-06T17:50:15.524Z,6.28
2023-02-06T17:52:42.049Z,4.97
2023-02-06T17:55:09.341Z,6.07
2023-02-06T17:57:37.162Z,8.43
2023-02-06T18:00:06.266Z,5.90
2023-02-06T18:02:33.321Z,6.38
2023-02-06T18:05:00.184Z,6.15
2023-02-06T18:07:27.423Z,5.90
2023-02-06T18:09:54.138Z,5.80
2023-02-06T18:12:20.888Z,5.22
2023-02-06T18:14:49.739Z,6.80
2023-02-06T18:18:59.155Z,7.47
2023-02-06T18:21:25.886Z,5.35
2023-02-06T18:23:54.293Z,8.75
2023-02-06T18:26:21.938Z,6.28
2023-02-06T18:28:49.307Z,6.15
2023-02-06T18:31:22.734Z,6.15
2023-02-06T18:33:49.817Z,13.00
2023-02-06T18:36:16.678Z,10.65
2023-02-06T18:38:43.710Z,8.05
2023-02-06T18:41:30.450Z,6.70
2023-02-06T18:44:00.810Z,6.75
2023-02-06T18:46:27.474Z,8.50
2023-02-06T18:48:55.156Z,7.45
2023-02-06T18:51:22.966Z,8.90
2023-02-06T18:53:49.921Z,8.23
2023-02-06T18:56:16.556Z,6.25
2023-02-06T18:58:43.281Z,11.45
2023-02-06T19:01:15.831Z,11.60
2023-02-06T19:03:42.892Z,13.00
2023-02-06T19:06:18.949Z,14.02
2023-02-06T19:08:46.702Z,11.40
2023-02-06T19:11:13.986Z,10.05
2023-02-06T19:13:40.929Z,7.72
2023-02-06T19:16:15.749Z,7.93
2023-02-06T19:18:44.969Z,9.68
2023-02-06T19:21:17.595Z,10.48
2023-02-06T19:23:46.288Z,9.45
2023-02-06T19:26:15.929Z,7.05
2023-02-06T19:28:43.579Z,7.45
2023-02-06T19:31:11.830Z,8.13
2023-02-06T19:33:40.449Z,8.18
2023-02-06T19:36:07.388Z,10.95
2023-02-06T19:38:36.714Z,11.10
2023-02-06T19:41:13.386Z,9.80
2023-02-06T19:43:41.230Z,10.35
2023-02-06T19:46:13.916Z,9.30
2023-02-06T19:48:43.400Z,8.48
2023-02-06T19:51:13.717Z,14.60
2023-02-06T19:53:45.830Z,11.07
2023-02-06T19:56:14.319Z,8.27
2023-02-06T19:58:42.050Z,9.25
2023-02-06T20:01:10.562Z,8.77
2023-02-06T20:03:37.781Z,8.23
2023-02-06T20:06:07.858Z,7.18
2023-02-06T20:08:34.591Z,8.55
2023-02-06T20:11:09.231Z,7.93
2023-02-06T20:13:36.760Z,7.82
2023-02-06T20:16:04.740Z,7.93
2023-02-06T20:18:31.982Z,8.35
2023-02-06T20:20:58.899Z,8.40
2023-02-06T20:23:25.472Z,9.30
2023-02-06T20:25:52.801Z,9.70
2023-02-06T20:28:19.400Z,11.18
2023-02-06T20:30:46.480Z,8.45
2023-02-06T20:33:13.224Z,11.20
2023-02-06T20:35:40.929Z,8.25
2023-02-06T20:38:08.255Z,12.05
2023-02-06T20:40:35.836Z,9.50
2023-02-06T20:43:02.857Z,11.02
2023-02-06T20:45:29.492Z,11.70
2023-02-06T20:47:56.073Z,11.43
2023-02-06T20:50:22.763Z,10.98
2023-02-06T20:52:49.322Z,11.82
2023-02-06T20:55:16.030Z,9.95
2023-02-06T20:57:43.298Z,8.80
2023-02-06T21:00:10.695Z,12.07
2023-02-06T21:02:37.418Z,10.43
2023-02-06T21:05:06.182Z,9.80
2023-02-06T21:07:33.425Z,10.38
2023-02-06T21:10:00.075Z,10.57
2023-02-06T21:12:26.663Z,9.90
2023-02-06T21:14:53.198Z,17.50
2023-02-06T21:17:19.825Z,12.23
2023-02-06T21:19:46.403Z,10.95
2023-02-06T21:22:12.953Z,14.00
2023-02-06T21:24:39.479Z,11.50
2023-02-06T21:27:06.124Z,15.32
2023-02-06T21:29:32.667Z,12.82
2023-02-06T21:32:12.598Z,12.05
2023-02-06T21:34:40.071Z,11.35
2023-02-06T21:37:06.633Z,10.27
2023-02-06T21:39:33.560Z,12.15
2023-02-06T21:42:01.657Z,12.02
2023-02-06T21:44:28.926Z,10.80
2023-02-06T21:46:56.075Z,13.10
2023-02-06T21:49:23.489Z,11.10
2023-02-06T21:51:51.121Z,10.35
2023-02-06T21:54:17.977Z,10.13
2023-02-06T21:56:44.827Z,12.18
2023-02-06T21:59:12.593Z,11.73
2023-02-06T22:01:41.137Z,11.40
2023-02-06T22:04:09.234Z,11.27
2023-02-06T22:06:38.798Z,8.40
2023-02-06T22:09:08.617Z,8.98
2023-02-06T22:11:37.814Z,10.48
2023-02-06T22:14:07.421Z,8.68
2023-02-06T22:16:34.648Z,13.23
2023-02-06T22:19:01.297Z,11.50
2023-02-06T22:21:30.115Z,11.90
2023-02-06T22:23:59.333Z,11.73
2023-02-06T22:26:27.898Z,10.35
2023-02-06T22:28:54.447Z,12.30
2023-02-06T22:31:24.953Z,7.72
2023-02-06T22:33:52.408Z,14.40
2023-02-06T22:36:22.222Z,9.50
2023-02-06T22:38:53.783Z,11.52
2023-02-06T22:41:20.322Z,9.00
2023-02-06T22:43:49.248Z,12.02
2023-02-06T22:46:21.867Z,8.93
2023-02-06T22:48:49.094Z,9.15
2023-02-06T22:51:15.997Z,10.20
2023-02-06T22:53:42.815Z,11.35
2023-02-06T22:56:34.519Z,10.90
2023-02-06T22:59:10.416Z,9.48
2023-02-06T23:04:34.597Z,11.52
2023-02-06T23:07:02.212Z,25.92
2023-02-06T23:09:34.554Z,12.70
2023-02-06T23:12:02.111Z,11.23
2023-02-06T23:14:30.280Z,10.70
2023-02-06T23:16:57.476Z,8.95
2023-02-06T23:19:24.399Z,11.10
2023-02-06T23:21:51.358Z,10.40
2023-02-06T23:24:18.671Z,13.18
2023-02-06T23:26:47.486Z,14.50
2023-02-06T23:29:17.223Z,9.88
2023-02-06T23:31:45.432Z,14.23
2023-02-06T23:34:12.822Z,9.63
2023-02-06T23:36:39.339Z,9.98
2023-02-06T23:39:06.342Z,12.35
2023-02-06T23:41:33.459Z,10.68
2023-02-06T23:44:02.681Z,12.13
2023-02-06T23:46:31.146Z,11.40
2023-02-06T23:48:58.243Z,12.13
2023-02-06T23:51:25.290Z,9.75
2023-02-06T23:53:51.876Z,10.10
2023-02-06T23:56:23.739Z,11.52
2023-02-06T23:58:50.838Z,8.70
